createdAt,value
2018-03-21T00:02:09.418Z,77.33
2018-03-21T00:04:37.018Z,77.23
2018-03-21T00:07:04.711Z,77.49
2018-03-21T00:09:32.308Z,77.36
2018-03-21T00:11:59.974Z,77.40
2018-03-21T00:14:27.586Z,76.56
2018-03-21T00:16:55.267Z,76.05
2018-03-21T00:19:22.894Z,75.46
2018-03-21T00:21:50.524Z,75.88
2018-03-21T00:24:18.245Z,76.41
2018-03-21T00:26:45.903Z,75.74
2018-03-21T00:29:13.506Z,76.24
2018-03-21T00:31:41.138Z,76.56
2018-03-21T00:34:08.759Z,77.50
2018-03-21T00:36:36.415Z,78.11
2018-03-21T00:39:04.085Z,78.39
2018-03-21T00:41:31.734Z,78.57
2018-03-21T00:43:59.338Z,78.49
2018-03-21T00:46:27.013Z,77.76
2018-03-21T00:48:54.665Z,77.53
2018-03-21T00:51:22.266Z,77.73
2018-03-21T00:53:49.906Z,78.05
2018-03-21T00:56:17.535Z,78.44
2018-03-21T00:58:45.223Z,78.30
2018-03-21T01:01:13.651Z,78.20
2018-03-21T01:03:41.328Z,77.82
2018-03-21T01:06:08.988Z,77.35
2018-03-21T01:08:36.610Z,77.19
2018-03-21T01:11:04.261Z,77.50
2018-03-21T01:13:31.870Z,77.55
2018-03-21T01:15:59.524Z,77.49
2018-03-21T01:18:27.150Z,77.15
2018-03-21T01:20:54.815Z,76.61
2018-03-21T01:23:22.506Z,75.66
2018-03-21T01:25:50.318Z,76.12
2018-03-21T01:28:18.231Z,77.59
2018-03-21T01:30:45.875Z,78.55
2018-03-21T01:33:13.528Z,78.92
2018-03-21T01:35:41.184Z,78.99
2018-03-21T01:38:08.892Z,79.54
2018-03-21T01:40:36.530Z,79.42
2018-03-21T01:43:04.183Z,79.07
2018-03-21T01:45:31.818Z,79.01
2018-03-21T01:47:59.417Z,79.27
2018-03-21T01:50:27.057Z,79.22
2018-03-21T01:53:06.338Z,79.02
2018-03-21T01:55:33.983Z,78.75
2018-03-21T01:58:01.642Z,78.68
2018-03-21T02:00:29.325Z,78.35
2018-03-21T02:02:56.972Z,78.27
2018-03-21T02:05:24.599Z,79.82
2018-03-21T02:07:52.267Z,78.08
2018-03-21T02:10:19.929Z,78.68
2018-03-21T02:12:47.721Z,78.96
2018-03-21T02:15:15.339Z,78.99
2018-03-21T02:17:42.981Z,79.02
2018-03-21T02:20:10.565Z,77.82
2018-03-21T02:22:38.258Z,77.87
2018-03-21T02:25:05.865Z,77.91
2018-03-21T02:27:33.526Z,77.22
2018-03-21T02:30:01.170Z,77.35
2018-03-21T02:32:28.804Z,77.50
2018-03-21T02:34:56.394Z,77.57
2018-03-21T02:37:24.074Z,77.09
2018-03-21T02:39:51.682Z,77.69
2018-03-21T02:42:19.341Z,78.07
2018-03-21T02:44:47.096Z,78.79
2018-03-21T02:47:14.907Z,78.88
2018-03-21T02:49:42.506Z,79.27
2018-03-21T02:52:10.194Z,79.41
2018-03-21T02:54:37.912Z,79.62
2018-03-21T02:57:05.559Z,79.99
2018-03-21T02:59:33.216Z,80.25
2018-03-21T03:02:00.923Z,80.54
2018-03-21T03:04:28.687Z,80.93
2018-03-21T03:06:56.389Z,81.16
2018-03-21T03:09:24.057Z,80.93
2018-03-21T03:11:51.686Z,81.30
2018-03-21T03:14:19.390Z,82.21
2018-03-21T03:16:47.041Z,82.50
2018-03-21T03:19:14.705Z,82.45
2018-03-21T03:21:42.376Z,82.38
2018-03-21T03:24:09.984Z,82.53
2018-03-21T03:26:37.646Z,83.07
2018-03-21T03:29:05.275Z,82.90
2018-03-21T03:31:32.944Z,82.81
2018-03-21T03:34:00.596Z,83.37
2018-03-21T03:36:28.259Z,82.97
2018-03-21T03:38:55.915Z,83.22
2018-03-21T03:41:23.566Z,83.56
2018-03-21T03:43:51.247Z,83.22
2018-03-21T03:46:18.892Z,82.88
2018-03-21T03:48:46.551Z,83.38
2018-03-21T03:51:14.241Z,83.89
2018-03-21T03:53:42.456Z,83.85
2018-03-21T03:56:10.086Z,83.93
2018-03-21T03:58:37.747Z,83.59
2018-03-21T04:01:05.500Z,83.34
2018-03-21T04:03:33.850Z,83.55
2018-03-21T04:06:01.826Z,82.67
2018-03-21T04:08:29.461Z,82.77
2018-03-21T04:10:57.701Z,83.24
2018-03-21T04:13:25.714Z,83.18
2018-03-21T04:15:53.379Z,82.87
2018-03-21T04:18:20.995Z,83.17
2018-03-21T04:20:48.656Z,82.83
2018-03-21T04:23:16.318Z,82.90
2018-03-21T04:25:43.987Z,82.68
2018-03-21T04:28:11.651Z,82.56
2018-03-21T04:30:39.314Z,82.90
2018-03-21T04:33:06.929Z,83.48
2018-03-21T04:35:34.646Z,83.84
2018-03-21T04:38:02.287Z,83.92
2018-03-21T04:40:30.149Z,84.10
2018-03-21T04:42:57.806Z,83.36
2018-03-21T04:45:25.431Z,83.83
2018-03-21T04:47:53.112Z,84.29
2018-03-21T04:50:21.076Z,84.36
2018-03-21T04:52:49.535Z,84.17
2018-03-21T04:55:17.262Z,84.75
2018-03-21T04:57:45.599Z,84.49
2018-03-21T05:00:13.219Z,84.72
2018-03-21T05:02:40.849Z,84.89
2018-03-21T05:05:08.598Z,84.61
2018-03-21T05:07:36.266Z,84.16
2018-03-21T05:10:03.971Z,84.41
2018-03-21T05:12:31.619Z,84.53
2018-03-21T05:14:59.276Z,84.57
2018-03-21T05:17:26.934Z,84.87
2018-03-21T05:19:54.531Z,84.99
2018-03-21T05:22:22.186Z,85.09
2018-03-21T05:24:49.816Z,84.76
2018-03-21T05:27:17.482Z,85.25
2018-03-21T05:29:45.147Z,85.30
2018-03-21T05:32:12.789Z,85.71
2018-03-21T05:34:40.537Z,86.78
2018-03-21T05:37:08.213Z,86.39
2018-03-21T05:39:35.814Z,85.76
2018-03-21T05:42:03.508Z,85.78
2018-03-21T05:44:31.125Z,85.61
2018-03-21T05:46:59.748Z,85.17
2018-03-21T05:49:27.354Z,85.48
2018-03-21T05:51:54.963Z,85.60
2018-03-21T05:54:22.704Z,85.24
2018-03-21T05:56:50.396Z,85.06
2018-03-21T05:59:18.049Z,84.69
2018-03-21T06:01:45.855Z,84.33
2018-03-21T06:04:13.570Z,84.04
2018-03-21T06:06:41.160Z,83.83
2018-03-21T06:09:08.887Z,83.36
2018-03-21T06:11:36.548Z,83.26
2018-03-21T06:14:04.259Z,83.61
2018-03-21T06:16:31.905Z,83.58
2018-03-21T06:18:59.509Z,84.81
2018-03-21T06:21:27.161Z,83.76
2018-03-21T06:23:54.769Z,83.21
2018-03-21T06:26:22.420Z,82.87
2018-03-21T06:28:50.091Z,82.40
2018-03-21T06:31:17.705Z,82.70
2018-03-21T06:33:45.342Z,83.03
2018-03-21T06:36:14.562Z,83.16
2018-03-21T06:38:42.266Z,83.78
2018-03-21T06:41:09.882Z,83.32
2018-03-21T06:43:37.519Z,82.99
2018-03-21T06:46:05.220Z,82.45
2018-03-21T06:48:33.106Z,82.17
2018-03-21T06:51:00.746Z,81.58
2018-03-21T06:53:28.513Z,82.02
2018-03-21T06:55:56.153Z,80.45
2018-03-21T06:58:24.229Z,81.52
2018-03-21T07:00:52.717Z,81.46
2018-03-21T07:03:20.598Z,81.57
2018-03-21T07:05:48.333Z,81.27
2018-03-21T07:08:16.619Z,81.16
2018-03-21T07:10:44.481Z,80.63
2018-03-21T07:13:12.268Z,80.39
2018-03-21T07:15:51.861Z,79.86
2018-03-21T07:18:19.681Z,81.47
2018-03-21T07:20:47.344Z,81.81
2018-03-21T07:23:15.202Z,80.67
2018-03-21T07:25:42.957Z,79.40
2018-03-21T07:28:10.668Z,77.36
2018-03-21T07:30:38.338Z,76.40
2018-03-21T07:33:06.151Z,76.65
2018-03-21T07:35:33.807Z,76.57
2018-03-21T07:38:01.516Z,75.93
2018-03-21T07:40:29.158Z,75.36
2018-03-21T07:42:56.812Z,75.87
2018-03-21T07:45:24.421Z,76.04
2018-03-21T07:47:52.201Z,75.45
2018-03-21T07:50:20.280Z,76.75
2018-03-21T07:52:47.971Z,78.06
2018-03-21T07:55:15.621Z,77.87
2018-03-21T07:57:43.690Z,77.10
2018-03-21T08:00:11.354Z,77.42
2018-03-21T08:02:40.045Z,76.56
2018-03-21T08:05:07.684Z,77.39
2018-03-21T08:07:36.199Z,76.74
2018-03-21T08:10:04.465Z,75.98
2018-03-21T08:12:32.147Z,75.17
2018-03-21T08:14:59.970Z,75.01
2018-03-21T08:17:27.590Z,74.94
2018-03-21T08:19:55.945Z,74.01
2018-03-21T08:22:23.609Z,74.59
2018-03-21T08:24:51.268Z,75.03
2018-03-21T08:27:19.713Z,74.59
2018-03-21T08:29:47.612Z,73.69
2018-03-21T08:32:15.394Z,73.42
2018-03-21T08:34:43.146Z,72.45
2018-03-21T08:37:11.548Z,73.07
2018-03-21T08:39:39.282Z,73.17
2018-03-21T08:42:06.954Z,73.05
2018-03-21T08:44:34.618Z,72.31
2018-03-21T08:47:02.348Z,71.28
2018-03-21T08:49:29.973Z,70.26
2018-03-21T08:51:57.636Z,70.75
2018-03-21T08:54:25.359Z,68.44
2018-03-21T08:56:53.933Z,69.56
2018-03-21T08:59:21.588Z,71.95
2018-03-21T09:01:49.205Z,71.19
2018-03-21T09:04:16.913Z,69.66
2018-03-21T09:06:44.577Z,68.74
2018-03-21T09:09:12.215Z,67.89
2018-03-21T09:11:39.843Z,66.36
2018-03-21T09:14:07.540Z,65.40
2018-03-21T09:16:35.158Z,68.48
2018-03-21T09:19:02.809Z,65.92
2018-03-21T09:21:30.417Z,67.23
2018-03-21T09:23:58.095Z,65.21
2018-03-21T09:26:25.758Z,66.36
2018-03-21T09:28:53.368Z,66.87
2018-03-21T09:31:21.046Z,66.68
2018-03-21T09:33:48.716Z,67.56
2018-03-21T09:36:16.445Z,66.53
2018-03-21T09:38:44.119Z,66.92
2018-03-21T09:41:11.747Z,65.11
2018-03-21T09:43:39.484Z,64.32
2018-03-21T09:46:07.110Z,63.74
2018-03-21T09:48:34.777Z,60.88
2018-03-21T09:51:03.503Z,62.18
2018-03-21T09:53:31.730Z,62.38
2018-03-21T09:56:00.278Z,62.11
2018-03-21T09:58:27.870Z,61.76
2018-03-21T10:00:56.069Z,61.88
2018-03-21T10:03:24.330Z,60.87
2018-03-21T10:05:52.245Z,61.81
2018-03-21T10:08:19.930Z,59.79
2018-03-21T10:10:47.592Z,60.28
2018-03-21T10:13:15.474Z,61.44
2018-03-21T10:15:43.291Z,60.28
2018-03-21T10:18:10.969Z,63.22
2018-03-21T10:20:38.586Z,61.47
2018-03-21T10:23:06.320Z,61.35
2018-03-21T10:25:33.912Z,62.37
2018-03-21T10:28:02.713Z,59.03
2018-03-21T10:30:30.309Z,60.45
2018-03-21T10:32:58.086Z,56.91
2018-03-21T10:35:26.278Z,58.10
2018-03-21T10:37:53.871Z,57.03
2018-03-21T10:40:21.685Z,55.97
2018-03-21T10:42:49.363Z,57.25
2018-03-21T10:45:17.238Z,60.01
2018-03-21T10:47:44.874Z,60.34
2018-03-21T10:50:12.549Z,59.09
2018-03-21T10:52:40.592Z,61.04
2018-03-21T10:55:08.277Z,61.67
2018-03-21T10:57:36.206Z,61.29
2018-03-21T11:00:03.917Z,61.76
2018-03-21T11:02:37.002Z,62.08
2018-03-21T11:05:04.617Z,63.01
2018-03-21T11:07:32.219Z,58.86
2018-03-21T11:09:59.872Z,62.43
2018-03-21T11:12:27.472Z,59.01
2018-03-21T11:14:55.158Z,60.02
2018-03-21T11:17:22.780Z,59.67
2018-03-21T11:19:50.482Z,59.26
2018-03-21T11:22:18.312Z,59.39
2018-03-21T11:24:45.948Z,56.83
2018-03-21T11:27:13.691Z,57.53
2018-03-21T11:29:41.313Z,55.69
2018-03-21T11:32:09.063Z,57.07
2018-03-21T11:34:36.717Z,55.01
2018-03-21T11:37:04.405Z,56.27
2018-03-21T11:39:33.458Z,55.11
2018-03-21T11:42:01.073Z,56.54
2018-03-21T11:44:28.785Z,55.16
2018-03-21T11:46:56.431Z,55.01
2018-03-21T11:49:24.155Z,54.85
2018-03-21T11:51:51.866Z,54.96
2018-03-21T11:54:19.557Z,55.07
2018-03-21T11:56:47.172Z,55.15
2018-03-21T11:59:14.848Z,54.59
2018-03-21T12:01:42.521Z,54.93
2018-03-21T12:04:10.167Z,52.48
2018-03-21T12:06:38.129Z,52.23
2018-03-21T12:09:06.058Z,52.93
2018-03-21T12:11:33.799Z,52.82
2018-03-21T12:14:01.721Z,54.25
2018-03-21T12:16:29.716Z,52.35
2018-03-21T12:18:57.619Z,53.34
2018-03-21T12:21:25.765Z,53.95
2018-03-21T12:23:53.580Z,52.85
2018-03-21T12:26:22.045Z,53.13
2018-03-21T12:28:49.976Z,51.60
2018-03-21T12:31:17.641Z,54.89
2018-03-21T12:33:45.331Z,52.68
2018-03-21T12:36:12.922Z,50.89
2018-03-21T12:38:40.595Z,50.89
2018-03-21T12:41:08.326Z,48.40
2018-03-21T12:43:35.969Z,49.59
2018-03-21T12:46:03.585Z,51.26
2018-03-21T12:48:31.300Z,50.21
2018-03-21T12:50:58.917Z,53.17
2018-03-21T12:53:26.584Z,52.04
2018-03-21T12:55:54.392Z,50.59
2018-03-21T12:58:21.920Z,50.81
2018-03-21T13:00:49.511Z,50.48
2018-03-21T13:03:17.297Z,50.78
2018-03-21T13:05:45.057Z,51.28
2018-03-21T13:08:12.804Z,51.83
2018-03-21T13:10:41.141Z,51.49
2018-03-21T13:13:08.774Z,50.16
2018-03-21T13:15:36.909Z,45.66
2018-03-21T13:18:04.651Z,46.57
2018-03-21T13:20:32.359Z,47.28
2018-03-21T13:23:00.126Z,47.31
2018-03-21T13:25:27.829Z,45.95
2018-03-21T13:27:55.448Z,46.88
2018-03-21T13:30:23.108Z,47.64
2018-03-21T13:32:50.865Z,47.78
2018-03-21T13:35:18.480Z,48.17
2018-03-21T13:37:46.122Z,48.83
2018-03-21T13:40:13.766Z,49.39
2018-03-21T13:42:41.420Z,48.25
2018-03-21T13:45:09.027Z,48.51
2018-03-21T13:47:36.701Z,49.44
2018-03-21T13:50:04.474Z,49.69
2018-03-21T13:52:32.095Z,49.17
2018-03-21T13:54:59.773Z,48.69
2018-03-21T13:57:27.390Z,50.08
2018-03-21T13:59:55.056Z,46.79
2018-03-21T14:02:22.712Z,47.60
2018-03-21T14:04:50.408Z,45.91
2018-03-21T14:07:18.103Z,44.97
2018-03-21T14:09:45.734Z,45.75
2018-03-21T14:12:13.391Z,47.34
2018-03-21T14:14:41.088Z,47.67
2018-03-21T14:17:08.777Z,47.75
2018-03-21T14:19:36.502Z,47.14
2018-03-21T14:22:04.176Z,46.34
2018-03-21T14:24:31.798Z,48.15
2018-03-21T14:27:00.130Z,49.27
2018-03-21T14:29:27.856Z,48.08
2018-03-21T14:31:55.651Z,47.48
2018-03-21T14:34:23.314Z,47.13
2018-03-21T14:36:51.106Z,45.37
2018-03-21T14:39:18.729Z,45.78
2018-03-21T14:41:46.420Z,46.30
2018-03-21T14:44:14.085Z,46.46
2018-03-21T14:46:41.728Z,47.05
2018-03-21T14:49:10.588Z,46.83
2018-03-21T14:51:38.252Z,47.31
2018-03-21T14:54:05.936Z,47.34
2018-03-21T14:56:33.619Z,47.98
2018-03-21T14:59:01.319Z,47.93
2018-03-21T15:01:29.007Z,48.92
2018-03-21T15:03:56.668Z,48.16
2018-03-21T15:06:24.300Z,49.74
2018-03-21T15:08:51.999Z,50.44
2018-03-21T15:11:19.750Z,54.04
2018-03-21T15:13:47.502Z,55.58
2018-03-21T15:16:15.111Z,55.62
2018-03-21T15:18:42.794Z,56.04
2018-03-21T15:21:11.661Z,55.87
2018-03-21T15:23:39.292Z,55.81
2018-03-21T15:26:06.945Z,50.20
2018-03-21T15:28:34.554Z,50.09
2018-03-21T15:31:02.303Z,49.19
2018-03-21T15:33:29.954Z,51.70
2018-03-21T15:35:57.633Z,52.85
2018-03-21T15:38:25.339Z,52.48
2018-03-21T15:40:52.955Z,51.59
2018-03-21T15:43:20.599Z,51.68
2018-03-21T15:45:48.365Z,52.16
2018-03-21T15:48:16.062Z,50.92
2018-03-21T15:50:43.808Z,51.20
2018-03-21T15:53:12.251Z,50.72
2018-03-21T15:55:39.960Z,51.61
2018-03-21T15:58:07.664Z,53.09
2018-03-21T16:00:35.422Z,52.10
2018-03-21T16:03:03.105Z,52.10
2018-03-21T16:05:30.795Z,51.34
2018-03-21T16:07:58.773Z,51.54
2018-03-21T16:10:26.490Z,50.81
2018-03-21T16:12:54.133Z,50.66
2018-03-21T16:15:21.794Z,50.54
2018-03-21T16:17:49.595Z,50.86
2018-03-21T16:20:17.256Z,48.69
2018-03-21T16:22:44.872Z,49.83
2018-03-21T16:25:12.521Z,50.99
2018-03-21T16:27:41.147Z,48.99
2018-03-21T16:30:08.825Z,50.18
2018-03-21T16:32:36.546Z,51.80
2018-03-21T16:35:04.331Z,49.83
2018-03-21T16:37:32.065Z,48.11
2018-03-21T16:39:59.906Z,50.16
2018-03-21T16:42:27.587Z,49.33
2018-03-21T16:44:56.267Z,50.01
2018-03-21T16:47:23.964Z,49.87
2018-03-21T16:49:51.638Z,48.40
2018-03-21T16:52:19.332Z,48.34
2018-03-21T16:54:47.074Z,47.61
2018-03-21T16:57:14.792Z,48.41
2018-03-21T16:59:42.476Z,48.04
2018-03-21T17:02:10.254Z,48.79
2018-03-21T17:04:38.079Z,50.34
2018-03-21T17:07:05.782Z,48.83
2018-03-21T17:09:33.485Z,49.89
2018-03-21T17:12:01.232Z,51.02
2018-03-21T17:14:29.068Z,52.59
2018-03-21T17:16:57.126Z,53.16
2018-03-21T17:19:25.033Z,53.19
2018-03-21T17:21:52.761Z,53.31
2018-03-21T17:24:20.702Z,53.78
2018-03-21T17:26:48.649Z,53.68
2018-03-21T17:29:16.894Z,54.49
2018-03-21T17:31:44.708Z,56.19
2018-03-21T17:34:12.382Z,56.63
2018-03-21T17:36:40.446Z,56.72
2018-03-21T17:39:08.315Z,58.53
2018-03-21T17:41:37.382Z,58.02
2018-03-21T17:44:06.495Z,57.50
2018-03-21T17:46:35.086Z,60.18
2018-03-21T17:49:03.575Z,61.46
2018-03-21T17:51:32.497Z,62.39
2018-03-21T17:54:00.406Z,62.15
2018-03-21T17:56:28.099Z,62.67
2018-03-21T17:58:55.899Z,63.38
2018-03-21T18:01:24.312Z,63.68
2018-03-21T18:03:53.780Z,63.85
2018-03-21T18:06:22.454Z,64.16
2018-03-21T18:08:50.187Z,64.96
2018-03-21T18:11:17.974Z,65.50
2018-03-21T18:13:45.678Z,65.97
2018-03-21T18:16:14.098Z,65.88
2018-03-21T18:18:42.647Z,65.13
2018-03-21T18:21:10.457Z,65.73
2018-03-21T18:23:38.198Z,66.14
2018-03-21T18:26:06.049Z,66.56
2018-03-21T18:28:33.989Z,66.29
2018-03-21T18:31:01.725Z,66.05
2018-03-21T18:33:30.471Z,67.01
2018-03-21T18:35:59.101Z,66.73
2018-03-21T18:38:26.969Z,66.70
2018-03-21T18:40:55.030Z,66.95
2018-03-21T18:43:22.870Z,66.55
2018-03-21T18:45:50.679Z,66.02
2018-03-21T18:48:18.397Z,65.90
2018-03-21T18:50:47.580Z,66.65
2018-03-21T18:53:15.452Z,65.98
2018-03-21T18:55:43.258Z,65.84
2018-03-21T18:58:10.999Z,66.05
2018-03-21T19:00:38.905Z,66.27
2018-03-21T19:03:06.677Z,66.32
2018-03-21T19:05:34.625Z,66.81
2018-03-21T19:08:04.495Z,66.46
2018-03-21T19:10:33.568Z,65.95
2018-03-21T19:13:01.344Z,66.06
2018-03-21T19:15:29.038Z,67.10
2018-03-21T19:17:58.072Z,67.14
2018-03-21T19:20:26.385Z,67.17
2018-03-21T19:22:54.145Z,66.43
2018-03-21T19:25:22.119Z,66.06
2018-03-21T19:27:51.011Z,67.03
2018-03-21T19:30:18.806Z,67.13
2018-03-21T19:32:46.975Z,67.09
2018-03-21T19:35:14.835Z,66.96
2018-03-21T19:37:42.827Z,67.00
2018-03-21T19:40:11.959Z,67.47
2018-03-21T19:42:39.844Z,67.26
2018-03-21T19:45:07.855Z,67.72
2018-03-21T19:47:35.717Z,68.08
2018-03-21T19:50:03.656Z,68.95
2018-03-21T19:52:31.405Z,68.79
2018-03-21T19:55:01.090Z,68.71
2018-03-21T19:57:29.644Z,68.99
2018-03-21T19:59:57.568Z,68.98
2018-03-21T20:02:26.160Z,69.08
2018-03-21T20:04:53.984Z,68.97
2018-03-21T20:07:21.791Z,69.39
2018-03-21T20:09:50.681Z,69.09
2018-03-21T20:12:19.656Z,69.29
2018-03-21T20:14:47.554Z,69.73
2018-03-21T20:17:15.708Z,69.72
2018-03-21T20:19:44.064Z,70.01
2018-03-21T20:22:13.512Z,70.37
2018-03-21T20:24:41.556Z,69.98
2018-03-21T20:27:09.913Z,69.36
2018-03-21T20:29:37.935Z,69.22
2018-03-21T20:32:05.896Z,69.67
2018-03-21T20:34:34.365Z,70.91
2018-03-21T20:37:02.083Z,71.64
2018-03-21T20:39:29.923Z,70.44
2018-03-21T20:41:57.906Z,70.36
2018-03-21T20:44:26.178Z,69.70
2018-03-21T20:46:54.112Z,69.38
2018-03-21T20:49:21.903Z,69.61
2018-03-21T20:51:50.694Z,70.09
2018-03-21T20:54:18.691Z,70.29
2018-03-21T20:56:46.694Z,70.95
2018-03-21T20:59:15.096Z,70.08
2018-03-21T21:01:44.176Z,69.72
2018-03-21T21:04:12.182Z,70.13
2018-03-21T21:06:40.906Z,70.44
2018-03-21T21:09:08.626Z,70.47
2018-03-21T21:11:37.317Z,70.26
2018-03-21T21:14:05.025Z,70.28
2018-03-21T21:16:33.303Z,70.85
2018-03-21T21:19:03.106Z,71.11
2018-03-21T21:21:31.959Z,71.33
2018-03-21T21:23:59.753Z,71.33
2018-03-21T21:26:27.513Z,71.15
2018-03-21T21:28:55.205Z,71.17
2018-03-21T21:31:22.938Z,71.47
2018-03-21T21:33:50.753Z,72.14
2018-03-21T21:36:18.641Z,72.78
2018-03-21T21:38:47.455Z,72.67
2018-03-21T21:41:16.278Z,72.31
2018-03-21T21:43:43.973Z,73.00
2018-03-21T21:46:11.679Z,73.06
2018-03-21T21:48:39.378Z,72.84
2018-03-21T21:51:07.730Z,71.75
2018-03-21T21:53:35.421Z,71.46
2018-03-21T21:56:04.038Z,71.26
2018-03-21T21:58:31.812Z,71.74
2018-03-21T22:00:59.520Z,72.09
2018-03-21T22:03:27.247Z,72.25
2018-03-21T22:05:55.364Z,72.50
2018-03-21T22:08:23.089Z,72.52
2018-03-21T22:10:50.843Z,72.83
2018-03-21T22:13:18.501Z,72.23
2018-03-21T22:15:46.225Z,71.57
2018-03-21T22:18:15.025Z,71.46
2018-03-21T22:20:43.061Z,71.42
2018-03-21T22:23:10.804Z,70.87
2018-03-21T22:25:38.558Z,71.41
2018-03-21T22:28:06.676Z,71.05
2018-03-21T22:30:34.438Z,72.72
2018-03-21T22:33:02.131Z,72.72
2018-03-21T22:35:30.111Z,71.69
2018-03-21T22:37:57.787Z,72.58
2018-03-21T22:40:25.747Z,72.39
2018-03-21T22:42:53.395Z,72.23
2018-03-21T22:45:21.770Z,71.79
2018-03-21T22:47:50.781Z,71.69
2018-03-21T22:50:19.321Z,71.57
2018-03-21T22:52:46.974Z,72.08
2018-03-21T22:55:14.669Z,72.90
2018-03-21T22:57:42.358Z,72.69
2018-03-21T23:00:09.993Z,72.82
2018-03-21T23:02:37.769Z,72.37
2018-03-21T23:05:05.490Z,72.42
2018-03-21T23:07:33.207Z,73.50
2018-03-21T23:10:00.898Z,73.18
2018-03-21T23:12:28.648Z,72.31
2018-03-21T23:14:57.096Z,72.67
2018-03-21T23:17:24.730Z,73.28
2018-03-21T23:19:52.462Z,73.42
2018-03-21T23:22:20.160Z,73.96
2018-03-21T23:24:47.843Z,73.81
2018-03-21T23:27:15.476Z,73.74
2018-03-21T23:29:43.874Z,74.43
2018-03-21T23:32:12.628Z,74.69
2018-03-21T23:34:40.318Z,74.20
2018-03-21T23:37:08.051Z,73.17
2018-03-21T23:39:35.741Z,73.38
2018-03-21T23:42:03.414Z,73.88
2018-03-21T23:44:31.854Z,74.62
2018-03-21T23:46:59.567Z,74.84
2018-03-21T23:49:27.265Z,74.36
2018-03-21T23:51:54.941Z,74.28
2018-03-21T23:54:22.589Z,74.36
2018-03-21T23:56:50.269Z,74.22
2018-03-21T23:59:17.960Z,74.32
